Time;durP1;ratioP1;P1;durP2;ratioP2;P2;SDS_P1;SDS_P2;PMS_P1;PMS_P2;Temp;Humidity;BMP_temperature;BMP_pressure;BME280_temperature;BME280_humidity;BME280_pressure;Samples;Min_cycle;Max_cycle;Signal;HPM_P1;HPM_P2
2021/01/19 00:00:58;;;;;;;66.37;23.23;;;;;;;-12.47;63.77;100501.33;1751175;81;21139;-75
2021/01/19 00:03:27;;;;;;;63.20;22.73;;;;;;;-12.56;64.31;100499.50;1751232;81;21427;-73
2021/01/19 00:05:55;;;;;;;58.77;22.30;;;;;;;-12.58;63.83;100495.99;1751307;81;21266;-73
2021/01/19 00:08:24;;;;;;;54.43;19.63;;;;;;;-12.63;63.37;100493.94;1751340;81;21260;-72
2021/01/19 00:10:52;;;;;;;62.00;23.90;;;;;;;-12.64;63.80;100493.07;1751362;81;21147;-73
2021/01/19 00:13:20;;;;;;;55.90;20.10;;;;;;;-12.59;64.12;100500.56;1751273;81;21464;-73
2021/01/19 00:15:48;;;;;;;66.07;23.63;;;;;;;-12.61;63.98;100497.05;1751364;81;21134;-72
2021/01/19 00:18:16;;;;;;;61.10;25.13;;;;;;;-12.60;63.70;100503.89;1751401;81;21472;-73
2021/01/19 00:20:44;;;;;;;68.77;26.17;;;;;;;-12.69;63.32;100500.39;1751442;81;22047;-72
2021/01/19 00:23:12;;;;;;;64.70;24.53;;;;;;;-12.73;63.14;100500.11;1751208;81;21198;-74
2021/01/19 00:25:40;;;;;;;58.07;20.73;;;;;;;-12.75;63.07;100500.41;1751285;81;21167;-72
2021/01/19 00:28:09;;;;;;;59.27;23.37;;;;;;;-12.64;63.37;100499.41;1751251;81;21186;-73
2021/01/19 00:30:41;;;;;;;60.83;23.73;;;;;;;-12.57;62.98;100498.13;1750175;81;21162;-73
2021/01/19 00:33:10;;;;;;;52.13;20.00;;;;;;;-12.56;63.32;100502.04;1752617;80;21377;-73
2021/01/19 00:35:40;;;;;;;59.17;23.80;;;;;;;-12.62;63.51;100500.38;1781081;80;21471;-73
2021/01/19 00:38:09;;;;;;;62.47;21.47;;;;;;;-12.67;63.58;100491.63;1781268;80;21123;-73
2021/01/19 00:40:36;;;;;;;55.20;20.07;;;;;;;-12.62;64.13;100495.31;1781302;80;21127;-76
2021/01/19 00:43:04;;;;;;;53.23;22.07;;;;;;;-12.55;63.74;100487.28;1781055;80;21154;-77
2021/01/19 00:45:31;;;;;;;54.33;22.27;;;;;;;-12.51;64.11;100494.31;1781064;80;21381;-76
2021/01/19 00:48:03;;;;;;;49.90;19.50;;;;;;;-12.52;63.60;100490.39;1781237;80;21203;-75
2021/01/19 00:50:31;;;;;;;56.57;20.73;;;;;;;-12.57;63.62;100481.23;1781608;80;21147;-77
2021/01/19 00:53:02;;;;;;;48.08;18.85;;;;;;;-12.60;64.46;100476.39;1781987;80;21217;-76
2021/01/19 00:55:30;;;;;;;58.83;22.83;;;;;;;-12.55;64.82;100468.25;1781941;80;21162;-75
2021/01/19 00:57:59;;;;;;;56.83;22.67;;;;;;;-12.49;64.50;100476.25;1783189;80;21191;-75
2021/01/19 01:00:29;;;;;;;51.10;21.10;;;;;;;-12.52;63.84;100472.63;1782890;80;21174;-76
2021/01/19 01:02:58;;;;;;;60.60;23.50;;;;;;;-12.56;63.27;100471.59;1782761;80;21155;-76
2021/01/19 01:05:26;;;;;;;60.60;24.40;;;;;;;-12.56;62.76;100472.86;1782856;80;21162;-76
2021/01/19 01:07:54;;;;;;;61.03;24.70;;;;;;;-12.54;64.15;100468.73;1782889;80;21618;-75
2021/01/19 01:10:23;;;;;;;54.13;21.17;;;;;;;-12.40;64.46;100466.15;1783027;80;21498;-74
2021/01/19 01:12:51;;;;;;;55.90;21.80;;;;;;;-12.31;63.76;100461.63;1782811;80;21174;-76
2021/01/19 01:15:23;;;;;;;61.30;23.57;;;;;;;-12.29;63.06;100462.59;1782773;80;21159;-73
2021/01/19 01:17:51;;;;;;;58.50;22.33;;;;;;;-12.31;62.24;100464.16;1782093;80;21158;-75
2021/01/19 01:20:19;;;;;;;51.73;18.57;;;;;;;-12.32;61.80;100463.29;1783042;80;21593;-75
2021/01/19 01:22:46;;;;;;;51.50;19.77;;;;;;;-12.33;62.02;100456.48;1783153;80;22228;-74
2021/01/19 01:25:15;;;;;;;52.77;19.70;;;;;;;-12.34;62.43;100455.11;1782886;80;21146;-74
2021/01/19 01:27:44;;;;;;;50.47;19.93;;;;;;;-12.35;62.23;100449.52;1783014;80;21638;-75
2021/01/19 01:30:16;;;;;;;49.13;19.77;;;;;;;-12.40;61.77;100456.00;1781848;79;21307;-73
2021/01/19 01:32:50;;;;;;;49.97;19.27;;;;;;;-12.44;61.76;100456.59;1782508;80;21166;-73
2021/01/19 01:35:20;;;;;;;53.43;19.57;;;;;;;-12.47;62.47;100455.66;1784912;80;21484;-72
2021/01/19 01:37:51;;;;;;;52.30;18.90;;;;;;;-12.47;61.95;100459.45;1785424;80;21123;-74
2021/01/19 01:40:22;;;;;;;50.20;19.73;;;;;;;-12.43;62.58;100454.55;1785041;80;22272;-73
2021/01/19 01:42:51;;;;;;;59.13;23.15;;;;;;;-12.38;62.07;100459.51;1784952;80;21107;-76
2021/01/19 01:45:21;;;;;;;60.70;24.17;;;;;;;-12.38;62.28;100470.92;1784753;80;21579;-77
2021/01/19 01:47:50;;;;;;;57.73;22.63;;;;;;;-12.33;63.50;100466.99;1784842;80;21257;-75
2021/01/19 01:50:19;;;;;;;50.43;22.60;;;;;;;-12.20;63.13;100460.59;1784944;80;21649;-74
2021/01/19 01:52:46;;;;;;;58.23;22.57;;;;;;;-12.21;62.79;100449.97;1784781;80;21593;-75
2021/01/19 01:55:17;;;;;;;54.70;21.57;;;;;;;-12.10;63.05;100459.09;1784749;80;21107;-77
2021/01/19 01:57:45;;;;;;;57.80;21.83;;;;;;;-12.04;62.97;100450.95;1784632;80;21103;-76
2021/01/19 02:00:15;;;;;;;57.63;23.40;;;;;;;-12.00;62.84;100454.55;1784769;80;21390;-75
2021/01/19 02:02:51;;;;;;;58.58;23.77;;;;;;;-11.99;62.37;100458.43;1784876;80;21166;-74
2021/01/19 02:05:20;;;;;;;56.23;23.37;;;;;;;-11.96;61.66;100464.08;1784635;80;21135;-76
2021/01/19 02:08:14;;;;;;;58.17;24.53;;;;;;;-11.98;61.26;100462.73;1784783;80;21620;-75
2021/01/19 02:11:12;;;;;;;49.87;21.13;;;;;;;-12.03;60.67;100469.19;1754024;80;21179;-75
2021/01/19 02:17:39;;;;;;;64.27;23.77;;;;;;;-12.16;60.10;100461.27;1774394;79;26696;-75
2021/01/19 02:20:25;;;;;;;53.83;23.40;;;;;;;-12.28;59.78;100456.75;1747406;82;21214;-74
2021/01/19 02:23:22;;;;;;;50.07;17.53;;;;;;;-12.33;59.79;100453.94;1738547;82;21216;-74
2021/01/19 02:26:16;;;;;;;59.10;22.43;;;;;;;-12.30;59.95;100460.85;1717282;83;22192;-73
2021/01/19 02:28:54;;;;;;;42.07;16.53;;;;;;;-12.30;60.59;100451.97;1716988;83;21143;-75
2021/01/19 02:31:44;;;;;;;59.90;22.43;;;;;;;-12.40;60.01;100453.46;1688728;84;21369;-74
2021/01/19 02:34:32;;;;;;;57.33;23.27;;;;;;;-12.51;60.44;100451.57;1688972;84;21217;-77
2021/01/19 02:37:11;;;;;;;57.70;21.97;;;;;;;-12.58;60.81;100455.39;1660882;86;21225;-76
2021/01/19 02:39:55;;;;;;;43.30;16.93;;;;;;;-12.48;63.17;100461.49;1660986;85;21206;-77
2021/01/19 02:42:30;;;;;;;49.63;18.07;;;;;;;-12.41;63.73;100455.53;1661034;86;21601;-78
2021/01/19 02:44:57;;;;;;;49.13;20.40;;;;;;;-12.47;63.82;100455.66;1661003;86;21644;-77
2021/01/19 02:47:25;;;;;;;48.43;19.90;;;;;;;-12.58;63.78;100454.13;1635355;86;21517;-77
2021/01/19 02:49:53;;;;;;;54.30;21.13;;;;;;;-12.69;63.87;100461.48;1662246;86;22302;-77
2021/01/19 02:52:21;;;;;;;52.13;21.20;;;;;;;-12.69;64.54;100458.94;1661090;86;21701;-75
2021/01/19 02:54:49;;;;;;;45.70;17.53;;;;;;;-12.70;64.67;100454.27;1661231;85;21158;-78
2021/01/19 02:57:43;;;;;;;53.83;20.90;;;;;;;-12.61;65.88;100452.66;1661070;86;21212;-73
2021/01/19 03:00:20;;;;;;;47.10;18.13;;;;;;;-12.65;64.49;100448.20;1660952;85;21250;-78
2021/01/19 03:02:47;;;;;;;48.83;17.90;;;;;;;-12.79;63.88;100448.63;1661138;86;21774;-77
2021/01/19 03:05:16;;;;;;;48.37;19.43;;;;;;;-12.85;65.88;100453.31;1613263;86;21202;-77
2021/01/19 03:07:44;;;;;;;50.10;19.10;;;;;;;-12.77;66.43;100465.19;1661108;86;21233;-77
2021/01/19 03:10:15;;;;;;;49.70;20.00;;;;;;;-12.73;67.00;100462.06;1661086;86;21198;-78
2021/01/19 03:12:46;;;;;;;42.03;17.57;;;;;;;-12.83;64.80;100460.64;1661048;86;21171;-77
2021/01/19 03:15:16;;;;;;;36.88;14.40;;;;;;;-13.05;64.14;100469.83;1661280;85;21622;-77
2021/01/19 03:17:44;;;;;;;42.57;18.73;;;;;;;-13.15;64.79;100472.58;1661743;86;21231;-78
2021/01/19 03:20:14;;;;;;;49.40;17.93;;;;;;;-13.13;65.99;100467.22;1661814;86;21198;-77
2021/01/19 03:22:43;;;;;;;44.77;19.45;;;;;;;-13.04;66.33;100466.53;1661753;84;21680;-77
2021/01/19 03:25:11;;;;;;;43.00;16.50;;;;;;;-12.94;65.98;100466.30;1661700;86;21237;-76
2021/01/19 03:27:39;;;;;;;44.23;19.47;;;;;;;-12.83;65.12;100469.91;1661488;84;21221;-79
2021/01/19 03:30:10;;;;;;;45.87;18.73;;;;;;;-12.86;64.16;100464.63;1651492;84;21131;-77
2021/01/19 03:32:38;;;;;;;49.25;18.25;;;;;;;-12.89;63.71;100469.99;1689215;84;21611;-79
2021/01/19 03:35:08;;;;;;;46.13;20.20;;;;;;;-12.89;64.07;100467.45;1689145;84;21202;-76
2021/01/19 03:37:35;;;;;;;49.77;20.60;;;;;;;-12.85;64.08;100462.59;1689114;84;21167;-77
2021/01/19 03:40:09;;;;;;;49.53;19.60;;;;;;;-12.78;64.72;100463.45;1688957;84;21403;-77
2021/01/19 03:42:39;;;;;;;58.67;20.17;;;;;;;-12.79;64.65;100468.02;1663267;84;21207;-79
2021/01/19 03:45:09;;;;;;;53.23;20.80;;;;;;;-12.85;63.58;100462.59;1688952;84;21143;-79
2021/01/19 03:47:36;;;;;;;49.20;19.60;;;;;;;-13.05;62.80;100459.69;1688735;84;21182;-78
2021/01/19 03:50:06;;;;;;;48.13;20.00;;;;;;;-13.18;62.41;100463.13;1688982;84;21170;-80
2021/01/19 03:52:34;;;;;;;42.47;18.23;;;;;;;-13.14;62.79;100466.72;1689063;84;21250;-78
2021/01/19 03:55:02;;;;;;;41.43;18.23;;;;;;;-13.14;62.05;100459.11;1689088;84;21215;-79
2021/01/19 03:57:29;;;;;;;37.03;14.87;;;;;;;-13.17;63.03;100472.88;1689129;84;21226;-78
2021/01/19 03:59:57;;;;;;;45.17;17.23;;;;;;;-13.23;62.21;100463.61;1688090;84;21212;-78
2021/01/19 04:02:25;;;;;;;39.30;15.07;;;;;;;-13.36;62.89;100464.14;1687666;85;21187;-78
2021/01/19 04:04:53;;;;;;;51.03;19.27;;;;;;;-13.39;64.21;100469.39;1687728;85;21823;-77
2021/01/19 04:07:21;;;;;;;40.23;17.20;;;;;;;-13.36;64.36;100467.95;1687426;85;21215;-79
2021/01/19 04:09:49;;;;;;;45.73;18.53;;;;;;;-13.37;63.69;100464.91;1687728;85;21659;-78
2021/01/19 04:12:16;;;;;;;48.13;19.77;;;;;;;-13.45;62.59;100462.29;1687680;85;21199;-78
2021/01/19 04:14:45;;;;;;;48.57;19.70;;;;;;;-13.57;62.22;100461.48;1684212;84;21653;-77
2021/01/19 04:17:12;;;;;;;47.10;19.03;;;;;;;-13.63;61.95;100463.64;1652410;86;21231;-77
2021/01/19 04:19:40;;;;;;;49.07;18.93;;;;;;;-13.76;61.88;100469.16;1648622;87;21222;-80
2021/01/19 04:22:08;;;;;;;48.40;19.13;;;;;;;-13.70;63.29;100465.30;1648624;85;21501;-79
2021/01/19 04:24:35;;;;;;;47.70;19.70;;;;;;;-13.69;62.68;100463.23;1648457;87;21199;-77
2021/01/19 04:27:04;;;;;;;48.30;18.90;;;;;;;-13.87;61.63;100465.08;1648539;87;21235;-77
2021/01/19 04:29:32;;;;;;;50.00;20.43;;;;;;;-14.09;61.22;100465.31;1656577;85;21287;-76
2021/01/19 04:32:01;;;;;;;49.67;20.13;;;;;;;-14.17;61.59;100467.34;1675796;85;21230;-76
2021/01/19 04:34:29;;;;;;;56.67;20.43;;;;;;;-14.21;61.67;100464.11;1675939;85;21214;-78
2021/01/19 04:36:57;;;;;;;52.33;19.83;;;;;;;-14.17;61.76;100465.17;1675903;85;21214;-79
2021/01/19 04:39:24;;;;;;;49.30;20.17;;;;;;;-14.16;61.77;100470.74;1675738;85;21235;-77
2021/01/19 04:41:52;;;;;;;49.47;20.47;;;;;;;-14.20;61.24;100469.64;1676022;85;21341;-77
2021/01/19 04:44:20;;;;;;;47.83;19.53;;;;;;;-14.29;60.70;100472.83;1676218;85;21222;-76
2021/01/19 04:46:48;;;;;;;54.93;19.73;;;;;;;-14.39;60.58;100476.79;1676553;85;21159;-79
2021/01/19 04:49:16;;;;;;;53.10;20.40;;;;;;;-14.37;60.97;100479.04;1676159;85;21152;-79
2021/01/19 04:51:47;;;;;;;49.77;20.77;;;;;;;-14.33;60.79;100477.58;1656750;85;21187;-80
2021/01/19 04:54:21;;;;;;;;;;;;;;;-14.31;60.81;100478.17;1678707;85;21628;-79
2021/01/19 04:56:55;;;;;;;43.10;16.50;;;;;;;-14.29;60.85;100489.27;1676144;85;20274;-80
2021/01/19 04:59:24;;;;;;;43.10;17.53;;;;;;;-14.24;61.27;100479.10;1676218;85;21175;-80
2021/01/19 05:02:16;;;;;;;47.00;18.20;;;;;;;-14.26;60.91;100479.38;1676202;85;21206;-80
2021/01/19 05:04:47;;;;;;;45.80;17.70;;;;;;;-14.32;60.74;100478.95;1673930;85;21208;-79
2021/01/19 05:07:33;;;;;;;45.75;17.92;;;;;;;-14.33;60.87;100488.60;1648950;87;22282;-80
2021/01/19 05:10:12;;;;;;;46.37;17.67;;;;;;;-14.38;60.46;100498.41;1648813;87;21635;-79
2021/01/19 05:12:43;;;;;;;41.77;18.00;;;;;;;-14.38;60.46;100498.41;1648753;87;21239;-81
2021/01/19 05:15:12;;;;;;;39.95;16.90;;;;;;;-14.46;60.38;100499.92;1648790;87;21184;-80
2021/01/19 05:17:41;;;;;;;45.60;18.70;;;;;;;-14.50;61.24;100499.21;1648774;86;22145;-79
2021/01/19 05:20:11;;;;;;;48.33;17.47;;;;;;;-14.43;62.13;100505.17;1648568;87;21434;-79
2021/01/19 05:22:39;;;;;;;42.73;17.55;;;;;;;-14.37;61.89;100507.73;1648791;85;21250;-78
2021/01/19 05:25:08;;;;;;;49.53;19.40;;;;;;;-14.32;61.79;100502.13;1648676;87;21191;-78
2021/01/19 05:27:36;;;;;;;43.57;18.63;;;;;;;-14.30;61.51;100507.77;1648679;87;21238;-78
2021/01/19 05:30:05;;;;;;;45.90;19.77;;;;;;;-14.30;61.13;100510.30;1662419;85;21203;-76
2021/01/19 05:32:42;;;;;;;42.60;17.43;;;;;;;-14.29;61.02;100506.98;1675924;85;22348;-74
2021/01/19 05:35:20;;;;;;;48.63;19.30;;;;;;;-14.23;60.92;100505.27;1641199;87;21630;-75
2021/01/19 05:37:59;;;;;;;46.20;17.23;;;;;;;-14.24;60.42;100504.41;1629548;87;21208;-76
2021/01/19 05:40:28;;;;;;;39.33;15.03;;;;;;;-14.27;59.95;100504.17;1619168;86;21168;-76
2021/01/19 05:42:57;;;;;;;34.50;13.97;;;;;;;-14.37;59.63;100504.34;1631571;87;21211;-76
2021/01/19 05:45:25;;;;;;;44.50;18.00;;;;;;;-14.47;62.00;100510.80;1642806;87;22276;-77
2021/01/19 05:47:53;;;;;;;46.27;18.83;;;;;;;-14.56;61.76;100512.72;1628870;86;21264;-77
2021/01/19 05:50:21;;;;;;;45.97;19.07;;;;;;;-14.62;61.40;100524.17;1603229;89;21235;-76
2021/01/19 05:52:49;;;;;;;43.40;17.73;;;;;;;-14.65;61.32;100512.59;1664034;85;21667;-77
2021/01/19 05:55:23;;;;;;;48.53;19.03;;;;;;;-14.60;61.69;100512.92;1668439;85;21101;-77
2021/01/19 05:57:50;;;;;;;39.13;16.13;;;;;;;-14.56;61.33;100503.88;1664827;85;21985;-75
2021/01/19 06:00:20;;;;;;;38.23;13.90;;;;;;;-14.54;61.51;100513.71;1672678;85;21668;-75
2021/01/19 06:02:48;;;;;;;52.00;22.02;;;;;;;-14.61;61.66;100506.95;1676029;85;21221;-78
2021/01/19 06:05:17;;;;;;;43.60;19.23;;;;;;;-14.64;61.73;100508.02;1650624;85;21633;-78
2021/01/19 06:07:47;;;;;;;40.70;16.97;;;;;;;-14.63;61.69;100511.06;1666089;85;21187;-77
2021/01/19 06:10:18;;;;;;;56.60;21.60;;;;;;;-14.54;61.69;100508.66;1642197;87;22287;-78
2021/01/19 06:12:46;;;;;;;51.80;20.70;;;;;;;-14.44;62.48;100505.57;1638258;87;21199;-79
2021/01/19 06:15:14;;;;;;;49.17;19.67;;;;;;;-14.43;62.12;100508.58;1613009;88;21719;-79
2021/01/19 06:17:43;;;;;;;55.20;19.27;;;;;;;-14.49;61.37;100511.07;1673311;84;21259;-77
2021/01/19 06:20:12;;;;;;;62.60;24.17;;;;;;;-14.56;60.57;100514.86;1675759;85;21626;-75
2021/01/19 06:22:39;;;;;;;45.87;19.13;;;;;;;-14.68;60.98;100519.08;1665736;84;21660;-76
2021/01/19 06:25:13;;;;;;;46.43;18.30;;;;;;;-14.77;60.97;100523.50;1661719;85;21914;-75
2021/01/19 06:27:41;;;;;;;49.70;19.33;;;;;;;-14.92;61.11;100519.52;1674947;85;21190;-74
2021/01/19 06:30:11;;;;;;;52.47;18.80;;;;;;;-15.06;60.98;100524.48;1643101;87;21206;-74
2021/01/19 06:32:49;;;;;;;46.37;17.87;;;;;;;-15.18;61.31;100530.29;1636429;85;21334;-74
2021/01/19 06:35:21;;;;;;;46.20;18.33;;;;;;;-15.32;61.26;100533.09;1638576;87;21270;-72
2021/01/19 06:37:51;;;;;;;50.57;18.30;;;;;;;-15.48;61.27;100535.80;1635021;87;21200;-74
2021/01/19 06:40:21;;;;;;;49.58;19.20;;;;;;;-15.63;61.56;100538.45;1643101;87;21166;-74
2021/01/19 06:43:02;;;;;;;46.92;18.42;;;;;;;-15.72;61.75;100540.33;1638464;87;21797;-74
2021/01/19 06:45:32;;;;;;;57.07;19.60;;;;;;;-15.83;61.88;100542.05;1640054;86;21203;-76
2021/01/19 06:48:02;;;;;;;51.63;20.27;;;;;;;-15.90;62.01;100548.28;1638818;87;22346;-76
2021/01/19 06:50:37;;;;;;;54.70;19.80;;;;;;;-15.97;62.02;100547.33;1638319;87;21239;-76
2021/01/19 06:53:20;;;;;;;61.00;23.07;;;;;;;-16.10;61.79;100556.00;1638660;87;21598;-76
2021/01/19 06:56:11;;;;;;;57.57;20.43;;;;;;;-16.00;62.24;100553.42;1638449;87;21228;-75
2021/01/19 06:58:55;;;;;;;51.87;19.50;;;;;;;-15.68;63.22;100542.29;1644495;86;21250;-75
2021/01/19 07:01:27;;;;;;;44.00;17.63;;;;;;;-15.51;62.81;100553.22;1638664;87;21394;-75
2021/01/19 07:04:03;;;;;;;46.87;18.60;;;;;;;-15.45;62.52;100549.89;1638568;87;21294;-75
2021/01/19 07:06:48;;;;;;;55.47;19.80;;;;;;;-15.39;62.35;100563.73;1618455;87;21191;-74
2021/01/19 07:09:30;;;;;;;50.67;19.73;;;;;;;-15.30;62.36;100554.29;1637178;87;21231;-75
2021/01/19 07:12:08;;;;;;;48.50;18.37;;;;;;;-15.24;62.09;100554.74;1631449;87;21182;-75
2021/01/19 07:14:42;;;;;;;42.23;17.17;;;;;;;-15.19;62.00;100550.89;1631051;87;22298;-77
2021/01/19 07:20:41;;;;;;;92.83;32.47;;;;;;;-14.78;61.98;100550.44;1654377;81;75489;-94
2021/01/19 07:23:31;;;;;;;45.17;15.70;;;;;;;-14.34;60.54;100553.00;1566066;89;21250;-82
2021/01/19 07:25:59;;;;;;;43.87;17.30;;;;;;;-13.98;60.68;100555.89;1561763;90;21250;-76
2021/01/19 07:28:27;;;;;;;40.63;15.93;;;;;;;-13.38;60.42;100555.66;1554243;90;22399;-76
2021/01/19 07:30:56;;;;;;;49.60;18.13;;;;;;;-12.74;61.31;100550.38;1543844;90;21280;-75
2021/01/19 07:33:24;;;;;;;39.80;16.47;;;;;;;-12.09;57.98;100547.56;1560353;90;21239;-76
2021/01/19 07:35:51;;;;;;;42.33;16.63;;;;;;;-11.77;56.57;100553.66;1581814;90;21172;-75
2021/01/19 07:38:23;;;;;;;36.13;14.17;;;;;;;-11.30;58.27;100548.76;1582111;90;21317;-77
2021/01/19 07:40:51;;;;;;;39.13;15.50;;;;;;;-10.64;56.99;100545.20;1582110;90;22092;-76
2021/01/19 07:43:19;;;;;;;41.10;16.73;;;;;;;-10.24;54.07;100540.52;1581937;90;21415;-76
2021/01/19 07:45:55;;;;;;;42.87;16.73;;;;;;;-9.89;53.86;100538.96;1581974;90;21454;-77
2021/01/19 07:48:35;;;;;;;39.30;14.87;;;;;;;-9.62;50.03;100538.19;1582037;89;21207;-74
2021/01/19 07:51:15;;;;;;;38.00;16.00;;;;;;;-9.51;50.24;100537.05;1563289;90;21223;-76
2021/01/19 07:53:54;;;;;;;39.37;15.83;;;;;;;-9.14;50.87;100535.03;1582128;90;21234;-77
2021/01/19 07:56:26;;;;;;;36.53;15.90;;;;;;;-9.01;47.91;100536.51;1581779;90;21223;-77
2021/01/19 07:58:55;;;;;;;42.17;16.07;;;;;;;-9.00;47.48;100546.31;1581921;90;21203;-76
2021/01/19 08:01:34;;;;;;;36.57;15.80;;;;;;;-9.03;47.79;100551.28;1581921;90;21195;-77
2021/01/19 08:04:11;;;;;;;34.77;16.23;;;;;;;-8.92;48.55;100550.13;1581902;90;21204;-78
2021/01/19 08:06:39;;;;;;;34.83;14.93;;;;;;;-8.64;47.64;100547.59;1581970;90;21419;-77
2021/01/19 08:09:18;;;;;;;33.80;14.53;;;;;;;-8.68;47.83;100546.15;1581914;90;21194;-76
2021/01/19 08:11:45;;;;;;;35.10;15.20;;;;;;;-8.57;47.60;100540.69;1581916;90;21211;-77
2021/01/19 08:14:15;;;;;;;39.03;17.13;;;;;;;-8.35;45.88;100547.22;1581968;90;21199;-76
2021/01/19 08:16:49;;;;;;;35.27;15.03;;;;;;;-8.49;45.39;100536.79;1582072;90;21595;-77
2021/01/19 08:19:17;;;;;;;43.33;17.70;;;;;;;-8.77;45.79;100545.72;1586378;89;21388;-77
2021/01/19 08:21:53;;;;;;;37.27;15.83;;;;;;;-9.11;45.99;100545.41;1602864;87;21292;-77
2021/01/19 08:24:23;;;;;;;41.23;17.00;;;;;;;-9.58;46.17;100548.16;1609087;88;21214;-76
2021/01/19 08:26:51;;;;;;;41.07;16.77;;;;;;;-10.02;47.36;100548.91;1608019;89;21267;-77
2021/01/19 08:29:21;;;;;;;44.38;18.50;;;;;;;-10.32;48.88;100549.89;1613344;87;21236;-76
2021/01/19 08:31:56;;;;;;;52.80;20.37;;;;;;;-10.47;49.43;100555.02;1611565;87;21678;-77
2021/01/19 08:34:26;;;;;;;34.07;14.73;;;;;;;-10.63;50.03;100554.58;1611788;87;21272;-76
2021/01/19 08:36:55;;;;;;;27.20;11.70;;;;;;;-10.95;49.66;100556.63;1613284;87;21586;-74
2021/01/19 08:39:22;;;;;;;33.13;13.20;;;;;;;-11.39;49.92;100550.78;1633353;87;21226;-76
2021/01/19 08:41:52;;;;;;;31.50;14.00;;;;;;;-11.52;51.59;100558.51;1626173;87;21235;-77
2021/01/19 08:44:22;;;;;;;33.83;13.03;;;;;;;-11.31;52.30;100550.83;1611010;87;21505;-78
2021/01/19 08:46:50;;;;;;;33.10;12.87;;;;;;;-10.87;51.30;100553.72;1616958;87;21226;-74
2021/01/19 08:49:18;;;;;;;31.77;12.23;;;;;;;-10.75;50.23;100551.38;1609043;87;21673;-76
2021/01/19 08:51:48;;;;;;;26.87;10.23;;;;;;;-10.91;49.96;100554.33;1610077;87;21223;-77
2021/01/19 08:54:16;;;;;;;25.33;11.60;;;;;;;-11.29;50.15;100553.07;1615242;87;21867;-76
2021/01/19 08:56:46;;;;;;;35.90;14.07;;;;;;;-11.26;51.29;100550.69;1628167;87;22001;-77
2021/01/19 08:59:15;;;;;;;31.90;13.50;;;;;;;-11.07;51.22;100546.64;1608398;87;21271;-77
2021/01/19 09:01:50;;;;;;;;;;;;;;;-10.52;51.10;100542.03;1582263;89;21240;-77
2021/01/19 09:04:23;;;;;;;26.63;11.77;;;;;;;-9.80;51.05;100537.25;1577892;90;20297;-76
2021/01/19 09:06:52;;;;;;;27.30;11.40;;;;;;;-9.12;49.44;100534.70;1603125;87;21198;-77
2021/01/19 09:09:21;;;;;;;27.60;11.10;;;;;;;-8.99;46.70;100535.32;1607678;88;22058;-78
2021/01/19 09:14:28;;;;;;;31.90;14.33;;;;;;;-8.56;47.54;100525.82;1842461;76;23405;-78
2021/01/19 09:16:56;;;;;;;30.37;13.53;;;;;;;-7.83;46.19;100520.11;1793831;78;21170;-78
2021/01/19 09:19:24;;;;;;;27.33;12.40;;;;;;;-7.25;44.88;100522.09;1808820;77;21878;-77
2021/01/19 09:21:52;;;;;;;28.47;13.43;;;;;;;-7.06;43.81;100516.92;1825644;77;21150;-78
2021/01/19 09:24:21;;;;;;;33.43;15.40;;;;;;;-6.96;43.33;100517.73;1845659;77;21210;-77
2021/01/19 09:27:01;;;;;;;29.67;13.93;;;;;;;-6.81;42.92;100514.92;1781753;80;21889;-78
2021/01/19 09:29:32;;;;;;;29.63;13.80;;;;;;;-7.04;41.41;100516.58;1756035;80;21235;-77
2021/01/19 09:32:01;;;;;;;35.47;14.67;;;;;;;-7.29;42.53;100516.38;1752256;80;21821;-78
2021/01/19 09:34:30;;;;;;;28.40;14.33;;;;;;;-7.20;42.67;100512.52;1724462;81;21174;-78
2021/01/19 09:36:59;;;;;;;27.15;12.85;;;;;;;-7.05;43.05;100503.29;1752315;80;21158;-79
2021/01/19 09:39:28;;;;;;;28.73;13.93;;;;;;;-6.88;42.88;100500.52;1752222;80;21155;-78
2021/01/19 09:42:00;;;;;;;33.23;14.87;;;;;;;-7.06;41.82;100499.00;1756572;80;21182;-76
2021/01/19 09:44:30;;;;;;;34.07;16.43;;;;;;;-7.25;42.14;100511.85;1753726;80;21371;-77
2021/01/19 09:47:04;;;;;;;34.47;14.03;;;;;;;-7.43;42.63;100511.59;1743112;80;22146;-77
2021/01/19 09:49:33;;;;;;;30.63;14.03;;;;;;;-7.28;43.41;100503.65;1762474;80;21220;-77
2021/01/19 09:52:12;;;;;;;36.40;16.57;;;;;;;-6.74;43.30;100500.64;1749141;80;21606;-78
2021/01/19 09:54:40;;;;;;;33.53;16.10;;;;;;;-6.26;42.59;100498.17;1753399;80;21218;-77
2021/01/19 09:57:08;;;;;;;30.03;13.40;;;;;;;-5.96;42.52;100487.27;1756177;80;21379;-81
2021/01/19 09:59:38;;;;;;;35.63;16.47;;;;;;;-5.56;40.64;100493.77;1768063;80;22221;-79
2021/01/19 10:02:06;;;;;;;32.25;14.28;;;;;;;-5.69;41.00;100493.33;1767298;79;21218;-79
2021/01/19 10:04:34;;;;;;;31.87;14.70;;;;;;;-5.53;38.74;100487.02;1763057;79;21159;-80
2021/01/19 10:07:07;;;;;;;34.63;14.53;;;;;;;-5.44;40.18;100487.74;1773615;79;21198;-79
2021/01/19 10:09:36;;;;;;;38.75;15.28;;;;;;;-5.46;38.50;100489.38;1786659;79;21393;-78
2021/01/19 10:12:06;;;;;;;36.90;15.87;;;;;;;-5.91;38.37;100485.31;1763354;79;21241;-80
2021/01/19 10:14:39;;;;;;;33.53;14.87;;;;;;;-5.98;39.64;100483.78;1762931;81;21881;-80
2021/01/19 10:17:10;;;;;;;32.47;15.00;;;;;;;-5.74;40.08;100484.60;1766187;79;21430;-79
2021/01/19 10:19:38;;;;;;;34.10;13.98;;;;;;;-5.30;40.08;100478.80;1762731;79;21619;-80
2021/01/19 10:22:10;;;;;;;36.45;15.65;;;;;;;-4.81;39.25;100461.90;1762601;81;21376;-79
2021/01/19 10:24:46;;;;;;;35.00;16.12;;;;;;;-4.46;37.58;100460.39;1767256;79;21150;-75
2021/01/19 10:27:18;;;;;;;38.65;17.30;;;;;;;-4.48;37.18;100453.91;1774857;80;21222;-78
2021/01/19 10:29:46;;;;;;;38.75;17.57;;;;;;;-4.46;38.68;100449.69;1771285;80;21211;-76
2021/01/19 10:32:16;;;;;;;36.03;16.35;;;;;;;-3.86;37.68;100456.91;1741182;80;21174;-77
2021/01/19 10:34:47;;;;;;;36.85;16.60;;;;;;;-3.52;37.36;100448.34;1767346;80;21211;-75
2021/01/19 10:37:15;;;;;;;35.15;15.75;;;;;;;-3.09;36.12;100440.34;1763230;80;21782;-77
2021/01/19 10:39:56;;;;;;;29.25;13.45;;;;;;;-2.93;35.51;100439.41;1772157;80;21190;-79
2021/01/19 10:42:31;;;;;;;33.73;16.13;;;;;;;-2.68;36.89;100433.09;1777303;80;21174;-82
2021/01/19 10:45:05;;;;;;;30.32;12.90;;;;;;;-2.57;35.24;100430.33;1769027;80;21397;-83
2021/01/19 10:47:42;;;;;;;31.82;15.63;;;;;;;-2.65;35.06;100429.28;1779254;80;21233;-76
2021/01/19 10:50:16;;;;;;;29.67;13.72;;;;;;;-2.34;35.09;100432.09;1773921;80;21322;-78
2021/01/19 10:53:03;;;;;;;30.68;15.45;;;;;;;-2.24;34.07;100433.13;1770077;79;21190;-80
2021/01/19 10:55:32;;;;;;;33.45;15.25;;;;;;;-2.52;32.89;100432.57;1754797;79;21642;-77
2021/01/19 10:58:03;;;;;;;37.45;15.20;;;;;;;-2.87;32.88;100427.53;1784066;80;21179;-78
2021/01/19 11:00:32;;;;;;;36.70;18.30;;;;;;;-2.86;33.67;100425.39;1787764;79;22530;-78
2021/01/19 11:03:01;;;;;;;32.23;14.85;;;;;;;-2.77;33.73;100419.16;1790530;79;21728;-76
2021/01/19 11:05:29;;;;;;;35.10;15.95;;;;;;;-2.69;34.42;100421.02;1796604;79;21403;-79
2021/01/19 11:07:57;;;;;;;31.20;15.15;;;;;;;-2.57;34.57;100421.30;1786724;80;21112;-78
2021/01/19 11:10:26;;;;;;;30.43;15.23;;;;;;;-2.34;35.12;100418.77;1786473;80;21622;-78
2021/01/19 11:12:55;;;;;;;33.85;15.50;;;;;;;-2.28;34.85;100406.39;1786046;79;21201;-79
2021/01/19 11:15:23;;;;;;;29.95;14.20;;;;;;;-2.52;33.10;100402.91;1785469;78;21194;-79
2021/01/19 11:17:51;;;;;;;29.32;14.05;;;;;;;-2.83;34.98;100398.42;1784663;80;21169;-78
2021/01/19 11:20:20;;;;;;;25.53;12.70;;;;;;;-2.81;34.50;100404.45;1785167;80;21202;-79
2021/01/19 11:22:49;;;;;;;32.23;14.75;;;;;;;-2.73;34.50;100402.06;1784848;78;21179;-80
2021/01/19 11:25:17;;;;;;;35.50;16.50;;;;;;;-2.60;34.76;100406.64;1789792;78;21395;-79
2021/01/19 11:27:54;;;;;;;27.17;11.73;;;;;;;-2.44;34.34;100410.41;1820088;76;22768;-78
2021/01/19 11:30:23;;;;;;;30.05;14.13;;;;;;;-2.42;33.52;100395.80;1722900;82;21203;-79
2021/01/19 11:32:52;;;;;;;28.35;13.53;;;;;;;-2.18;34.67;100399.72;1740499;81;21610;-77